createdAt,value
2023-02-27T00:01:04.437Z,8.23
2023-02-27T00:06:07.241Z,8.73
2023-02-27T00:11:09.939Z,10.45
2023-02-27T00:16:13.132Z,8.60
2023-02-27T00:21:15.940Z,10.15
2023-02-27T00:26:18.639Z,9.38
2023-02-27T00:31:21.647Z,8.65
2023-02-27T00:36:27.651Z,9.27
2023-02-27T00:41:30.533Z,8.32
2023-02-27T00:46:33.286Z,12.32
2023-02-27T00:51:36.184Z,8.55
2023-02-27T00:56:39.084Z,8.90
2023-02-27T01:01:41.965Z,10.82
2023-02-27T01:06:44.684Z,10.63
2023-02-27T01:11:47.477Z,11.88
2023-02-27T01:21:54.148Z,9.18
2023-02-27T01:26:56.801Z,11.48
2023-02-27T01:31:59.790Z,11.27
2023-02-27T01:37:03.771Z,9.53
2023-02-27T01:42:13.192Z,8.32
2023-02-27T01:47:15.996Z,9.70
2023-02-27T01:52:18.958Z,9.60
2023-02-27T01:57:21.750Z,9.20
2023-02-27T02:02:30.523Z,9.75
2023-02-27T02:07:34.610Z,7.88
2023-02-27T02:17:58.583Z,9.30
2023-02-27T02:23:07.280Z,7.90
2023-02-27T02:28:36.607Z,8.60
2023-02-27T02:33:55.850Z,7.55
2023-02-27T02:39:40.655Z,8.85
2023-02-27T02:44:49.132Z,10.30
2023-02-27T02:49:58.536Z,7.13
2023-02-27T02:55:12.713Z,7.97
2023-02-27T03:00:19.159Z,9.10
2023-02-27T03:05:39.650Z,8.05
2023-02-27T03:10:51.015Z,7.18
2023-02-27T03:15:53.908Z,9.18
2023-02-27T03:20:59.356Z,7.53
2023-02-27T03:26:03.348Z,11.07
2023-02-27T03:31:18.486Z,9.20
2023-02-27T03:36:27.858Z,6.35
2023-02-27T03:41:38.275Z,7.80
2023-02-27T03:47:01.143Z,8.60
2023-02-27T03:52:04.342Z,7.10
2023-02-27T03:57:08.586Z,6.88
2023-02-27T04:02:11.927Z,6.45
2023-02-27T04:07:24.004Z,6.85
2023-02-27T04:13:02.379Z,7.68
2023-02-27T04:18:21.238Z,6.00
2023-02-27T04:23:31.198Z,5.75
2023-02-27T04:28:44.013Z,5.82
2023-02-27T04:34:02.044Z,7.45
2023-02-27T04:39:09.685Z,5.63
2023-02-27T04:44:45.892Z,6.50
2023-02-27T04:50:19.929Z,7.68
2023-02-27T04:55:32.052Z,6.85
2023-02-27T05:00:42.208Z,6.43
2023-02-27T05:05:49.167Z,4.63
2023-02-27T05:11:14.645Z,5.50
2023-02-27T05:16:17.264Z,6.40
2023-02-27T05:21:25.919Z,6.20
2023-02-27T05:26:44.141Z,5.90
2023-02-27T05:32:03.996Z,5.30
2023-02-27T05:37:20.535Z,5.50
2023-02-27T05:42:29.012Z,6.57
2023-02-27T05:47:33.099Z,6.07
2023-02-27T05:52:36.140Z,5.80
2023-02-27T05:58:10.379Z,6.18
2023-02-27T06:03:16.804Z,5.18
2023-02-27T06:08:20.154Z,5.65
2023-02-27T06:13:24.033Z,6.65
2023-02-27T06:23:30.205Z,6.40
2023-02-27T06:28:32.921Z,6.15
2023-02-27T06:33:35.847Z,4.82
2023-02-27T06:38:38.522Z,5.88
2023-02-27T06:43:41.230Z,6.60
2023-02-27T06:48:44.031Z,6.45
2023-02-27T06:53:49.765Z,5.60
2023-02-27T06:58:52.438Z,5.95
2023-02-27T07:03:55.206Z,6.05
2023-02-27T07:09:06.461Z,6.10
2023-02-27T07:14:10.139Z,6.18
2023-02-27T07:19:12.916Z,6.95
2023-02-27T07:24:15.669Z,5.22
2023-02-27T07:29:18.524Z,5.45
2023-02-27T07:34:21.516Z,5.50
2023-02-27T07:39:24.469Z,5.72
2023-02-27T07:44:27.206Z,6.55
2023-02-27T07:49:30.039Z,5.18
2023-02-27T07:54:35.360Z,6.35
2023-02-27T07:59:38.666Z,5.32
2023-02-27T08:04:44.203Z,5.97
2023-02-27T08:09:46.817Z,5.82
2023-02-27T08:14:49.530Z,6.18
2023-02-27T08:19:52.343Z,4.95
2023-02-27T08:24:55.068Z,5.80
2023-02-27T08:29:57.763Z,4.97
2023-02-27T08:35:00.706Z,6.00
2023-02-27T08:40:05.984Z,5.55
2023-02-27T08:45:10.375Z,4.88
2023-02-27T08:50:13.407Z,5.78
2023-02-27T08:55:16.321Z,7.05
2023-02-27T09:00:19.562Z,5.45
2023-02-27T09:05:23.221Z,5.80
2023-02-27T09:10:25.906Z,5.45
2023-02-27T09:15:28.944Z,6.30
2023-02-27T09:20:36.107Z,5.97
2023-02-27T09:25:38.823Z,5.45
2023-02-27T09:30:41.535Z,6.72
2023-02-27T09:35:44.393Z,5.95
2023-02-27T09:40:48.478Z,5.78
2023-02-27T09:45:54.716Z,4.73
2023-02-27T09:50:58.288Z,6.07
2023-02-27T09:56:11.528Z,6.22
2023-02-27T10:01:37.291Z,4.88
2023-02-27T10:06:45.150Z,5.13
2023-02-27T10:12:14.136Z,6.00
2023-02-27T10:17:37.426Z,5.60
2023-02-27T10:22:44.170Z,6.38
2023-02-27T10:27:50.968Z,7.15
2023-02-27T10:33:14.218Z,8.82
2023-02-27T10:38:31.498Z,8.57
2023-02-27T10:43:34.244Z,9.10
2023-02-27T10:48:37.155Z,9.65
2023-02-27T10:53:39.854Z,6.05
2023-02-27T10:58:42.583Z,7.38
2023-02-27T11:03:45.321Z,7.95
2023-02-27T11:09:13.752Z,6.88
2023-02-27T11:14:26.025Z,7.90
2023-02-27T11:19:37.330Z,8.43
2023-02-27T11:24:40.002Z,6.95
2023-02-27T11:30:05.846Z,6.55
2023-02-27T11:35:23.929Z,8.48
2023-02-27T11:40:40.689Z,7.43
2023-02-27T11:46:11.974Z,8.63
2023-02-27T11:51:28.435Z,11.18
2023-02-27T11:56:42.679Z,11.70
2023-02-27T12:01:54.099Z,10.98
2023-02-27T12:07:19.890Z,11.45
2023-02-27T12:12:26.785Z,12.65
2023-02-27T12:17:51.934Z,14.52
2023-02-27T12:22:57.524Z,15.63
2023-02-27T12:28:09.190Z,13.70
2023-02-27T12:33:20.626Z,12.18
2023-02-27T12:38:24.053Z,10.80
2023-02-27T12:43:41.986Z,10.30
2023-02-27T12:48:47.797Z,6.82
2023-02-27T12:53:52.822Z,8.93
2023-02-27T12:59:23.692Z,9.02
2023-02-27T13:04:46.241Z,8.93
2023-02-27T13:10:14.629Z,8.77
2023-02-27T13:15:28.739Z,9.82
2023-02-27T13:21:14.032Z,9.48
2023-02-27T13:26:24.323Z,9.10
2023-02-27T13:31:39.635Z,9.38
2023-02-27T13:36:54.340Z,9.60
2023-02-27T13:41:57.037Z,10.52
2023-02-27T13:47:40.653Z,9.80
2023-02-27T13:52:43.468Z,8.40
2023-02-27T13:57:48.604Z,10.40
2023-02-27T14:03:00.509Z,9.57
2023-02-27T14:08:12.981Z,10.68
2023-02-27T14:13:54.954Z,11.52
2023-02-27T14:18:59.873Z,12.32
2023-02-27T14:24:04.816Z,11.20
2023-02-27T14:29:17.751Z,12.65
2023-02-27T14:34:22.110Z,12.73
2023-02-27T14:39:31.618Z,13.25
2023-02-27T14:44:44.073Z,11.90
2023-02-27T14:49:47.788Z,7.03
2023-02-27T14:54:52.114Z,12.90
2023-02-27T14:59:55.400Z,12.50
2023-02-27T15:05:06.386Z,15.32
2023-02-27T15:10:20.941Z,11.65
2023-02-27T15:15:23.808Z,11.93
2023-02-27T15:20:34.952Z,14.30
2023-02-27T15:25:39.024Z,11.05
2023-02-27T15:30:42.275Z,11.00
2023-02-27T15:35:46.619Z,10.63
2023-02-27T15:45:53.096Z,11.93
2023-02-27T15:50:59.113Z,14.00
2023-02-27T15:56:09.781Z,12.50
2023-02-27T16:01:23.770Z,11.20
2023-02-27T16:06:35.274Z,12.48
2023-02-27T16:11:38.324Z,13.35
2023-02-27T16:16:41.148Z,11.70
2023-02-27T16:22:23.019Z,9.73
2023-02-27T16:27:28.267Z,10.27
2023-02-27T16:32:37.223Z,14.57
2023-02-27T16:37:41.737Z,12.50
2023-02-27T16:47:49.538Z,11.32
2023-02-27T16:52:52.401Z,12.23
2023-02-27T16:57:55.244Z,13.48
2023-02-27T17:02:57.977Z,11.45
2023-02-27T17:08:00.946Z,9.27
2023-02-27T17:13:03.749Z,8.82
2023-02-27T17:18:08.108Z,10.18
2023-02-27T17:23:14.328Z,9.65
2023-02-27T17:28:17.388Z,10.52
2023-02-27T17:33:20.691Z,9.38
2023-02-27T17:38:23.536Z,9.57
2023-02-27T17:43:27.455Z,8.95
2023-02-27T17:48:30.111Z,9.85
2023-02-27T17:53:33.282Z,9.50
2023-02-27T17:58:36.446Z,9.98
2023-02-27T18:03:39.565Z,7.32
2023-02-27T18:08:42.506Z,7.72
2023-02-27T18:13:45.750Z,9.40
2023-02-27T18:18:48.727Z,8.00
2023-02-27T18:23:53.183Z,7.65
2023-02-27T18:28:57.008Z,10.52
2023-02-27T18:34:00.938Z,11.07
2023-02-27T18:39:05.363Z,8.48
2023-02-27T18:49:10.893Z,9.73
2023-02-27T18:54:14.881Z,7.05
2023-02-27T18:59:17.796Z,8.18
2023-02-27T19:04:20.591Z,9.52
2023-02-27T19:09:23.287Z,7.75
2023-02-27T19:14:26.078Z,7.40
2023-02-27T19:19:29.056Z,6.88
2023-02-27T19:24:31.971Z,7.03
2023-02-27T19:29:34.612Z,8.05
2023-02-27T19:34:37.376Z,7.18
2023-02-27T19:39:40.248Z,6.85
2023-02-27T19:44:43.570Z,6.40
2023-02-27T19:49:46.385Z,6.30
2023-02-27T19:54:49.333Z,6.32
2023-02-27T19:59:52.240Z,6.38
2023-02-27T20:04:55.132Z,5.03
2023-02-27T20:09:58.105Z,6.10
2023-02-27T20:15:08.561Z,5.35
2023-02-27T20:20:11.810Z,4.60
2023-02-27T20:25:14.538Z,5.13
2023-02-27T20:30:17.345Z,3.83
2023-02-27T20:35:20.064Z,3.95
2023-02-27T20:40:22.925Z,4.07
2023-02-27T20:45:26.076Z,3.92
2023-02-27T20:50:28.874Z,2.78
2023-02-27T20:55:31.724Z,3.30
2023-02-27T21:00:34.466Z,3.90
2023-02-27T21:05:37.212Z,3.40
2023-02-27T21:10:40.116Z,3.20
2023-02-27T21:15:42.933Z,3.53
2023-02-27T21:20:45.663Z,2.85
2023-02-27T21:25:48.638Z,2.95
2023-02-27T21:30:54.995Z,2.88
2023-02-27T21:35:57.809Z,2.90
2023-02-27T21:41:06.017Z,2.22
2023-02-27T21:46:11.309Z,2.33
2023-02-27T21:51:13.999Z,2.40
2023-02-27T21:56:16.763Z,2.63
2023-02-27T22:01:23.046Z,3.17
2023-02-27T22:06:27.864Z,2.47
2023-02-27T22:11:31.113Z,3.05
2023-02-27T22:16:34.567Z,2.05
2023-02-27T22:21:38.052Z,2.47
2023-02-27T22:26:41.948Z,2.55
2023-02-27T22:31:45.289Z,2.42
2023-02-27T22:36:49.131Z,2.78
2023-02-27T22:41:51.859Z,3.10
2023-02-27T22:46:56.260Z,2.50
2023-02-27T22:51:59.028Z,2.75
2023-02-27T22:57:01.768Z,2.30
2023-02-27T23:02:04.631Z,3.08
2023-02-27T23:07:07.508Z,3.13
2023-02-27T23:12:10.155Z,2.47
2023-02-27T23:17:12.898Z,2.20
2023-02-27T23:22:15.662Z,2.50
2023-02-27T23:27:25.767Z,2.60
2023-02-27T23:32:29.174Z,2.67
2023-02-27T23:37:31.891Z,2.80
2023-02-27T23:42:34.591Z,2.00
2023-02-27T23:47:46.080Z,2.30
2023-02-27T23:52:50.114Z,2.97
2023-02-27T23:57:53.992Z,2.72
